Date,TemperatureHighF,TemperatureAvgF,TemperatureLowF,DewpointHighF,DewpointAvgF,DewpointLowF,HumidityHigh,HumidityAvg,HumidityLow,PressureMaxIn,PressureMinIn,WindSpeedMaxMPH,WindSpeedAvgMPH,GustSpeedMaxMPH,PrecipitationSumIn
2013-5-1,76.4,61.4,42.3,41.1,34.6,27.0,74,40,17,30.41,30.28,14,1,14,0.00
2013-5-2,79.3,62.5,42.9,48.9,41.5,30.3,87,49,26,30.44,30.24,21,2,21,0.00
2013-5-3,69.3,59.0,47.5,43.9,36.4,25.7,63,44,27,30.46,30.29,15,3,16,0.00
2013-5-4,74.5,60.7,43.0,49.8,39.7,25.8,88,51,22,30.34,30.16,11,1,12,0.00
2013-5-5,75.5,47.7,41.7,42.2,0.2,-99.9,67,26,14,30.25,30.10,13,-248,13,0.00
2013-5-6,76.2,59.6,40.7,47.4,41.1,34.6,91,54,27,30.22,30.05,7,1,7,0.00
2013-5-7,79.8,64.1,47.8,57.6,49.6,43.7,91,62,34,30.15,30.00,8,1,8,0.00
2013-5-8,72.8,63.0,54.4,59.9,56.1,50.6,97,80,56,30.12,29.98,18,1,18,0.47
2013-5-9,67.9,60.1,53.6,57.9,54.5,51.4,95,83,60,29.98,29.83,9,1,10,0.02
2013-5-10,75.8,63.3,47.6,59.5,53.4,46.5,98,73,42,29.96,29.80,8,1,8,0.00
2013-5-11,68.3,62.9,54.7,63.3,58.3,52.7,95,86,63,29.80,29.62,13,2,14,0.22
2013-5-12,58.9,51.6,41.8,53.0,42.5,29.3,94,73,39,29.85,29.62,15,1,15,0.01
2013-5-13,47.8,42.6,39.6,35.5,31.5,27.6,82,65,51,30.08,29.85,13,1,14,0.00
2013-5-14,54.7,43.9,31.1,36.4,32.7,28.8,93,66,43,30.12,30.01,9,1,9,0.00
2013-5-15,59.7,50.1,31.9,52.0,40.3,28.3,92,71,35,30.06,29.61,17,2,17,0.05
2013-5-16,76.2,61.6,44.2,49.8,42.7,32.6,94,55,26,29.83,29.66,17,2,23,0.00
2013-5-17,66.5,55.6,44.4,44.7,41.1,37.3,83,60,36,30.21,29.83,12,1,12,0.00
2013-5-18,72.0,58.2,42.6,49.7,43.1,38.0,87,60,34,30.29,30.18,8,0,8,0.00
2013-5-19,62.1,55.5,48.4,55.2,51.0,44.6,93,85,74,30.29,30.13,9,1,9,0.07
2013-5-20,74.2,62.9,55.4,65.8,58.9,53.4,96,87,71,30.14,29.92,6,0,6,0.00
2013-5-21,85.7,71.2,57.3,68.7,63.5,56.2,98,79,49,29.95,29.74,15,1,15,1.05
2013-5-22,79.9,67.4,58.3,71.3,64.4,56.7,97,91,69,29.87,29.75,12,1,12,1.84
2013-5-23,76.8,69.4,63.2,68.7,64.6,60.8,94,85,68,29.79,29.69,12,2,13,0.10
2013-5-24,66.2,52.6,42.5,63.7,50.8,40.8,97,94,83,29.95,29.61,11,1,11,0.76
2013-5-25,44.0,42.0,39.8,42.5,40.5,38.3,100,94,89,29.95,29.87,18,1,18,0.88
2013-5-26,51.9,44.6,38.9,46.5,42.1,37.6,100,91,76,30.13,29.83,10,1,10,0.37
2013-5-27,68.7,52.9,37.0,47.4,41.6,35.7,97,69,39,30.20,30.09,9,1,11,0.00
2013-5-28,73.6,59.3,39.8,53.8,44.3,37.5,94,61,33,30.22,30.09,9,1,9,0.00
2013-5-29,77.8,65.1,56.7,70.3,61.6,53.5,97,89,71,30.10,29.91,13,0,13,1.26
2013-5-30,84.5,70.3,58.5,71.3,64.8,57.9,100,85,56,30.09,30.00,11,1,11,0.00
2013-5-31,90.0,76.9,62.0,71.9,66.0,60.5,97,72,43,30.08,29.89,10,0,10,0.00